createdAt,value
2023-02-05T00:01:25.462Z,14.40
2023-02-05T00:03:55.294Z,13.60
2023-02-05T00:06:24.923Z,13.35
2023-02-05T00:08:55.047Z,12.98
2023-02-05T00:11:25.209Z,14.43
2023-02-05T00:13:55.602Z,13.78
2023-02-05T00:16:26.541Z,13.87
2023-02-05T00:18:57.426Z,13.97
2023-02-05T00:21:27.644Z,14.13
2023-02-05T00:24:00.208Z,14.98
2023-02-05T00:26:29.794Z,15.73
2023-02-05T00:29:00.116Z,16.48
2023-02-05T00:31:30.128Z,16.33
2023-02-05T00:34:00.344Z,16.02
2023-02-05T00:36:30.492Z,16.82
2023-02-05T00:39:00.375Z,16.83
2023-02-05T00:41:30.581Z,17.90
2023-02-05T00:44:00.368Z,17.83
2023-02-05T00:46:30.485Z,18.60
2023-02-05T00:49:03.367Z,18.45
2023-02-05T00:51:33.255Z,19.10
2023-02-05T00:54:03.104Z,21.03
2023-02-05T00:56:33.353Z,21.97
2023-02-05T00:59:03.612Z,23.30
2023-02-05T01:01:33.631Z,23.27
2023-02-05T01:04:05.315Z,24.95
2023-02-05T01:06:35.144Z,27.97
2023-02-05T01:09:05.113Z,25.20
2023-02-05T01:11:35.060Z,26.10
2023-02-05T01:14:05.197Z,26.62
2023-02-05T01:16:34.949Z,27.60
2023-02-05T01:19:04.751Z,26.60
2023-02-05T01:21:36.189Z,29.03
2023-02-05T01:24:06.404Z,30.20
2023-02-05T01:26:36.199Z,29.73
2023-02-05T01:29:05.784Z,30.15
2023-02-05T01:31:35.817Z,32.57
2023-02-05T01:34:05.620Z,31.93
2023-02-05T01:36:35.404Z,33.53
2023-02-05T01:39:05.759Z,32.55
2023-02-05T01:41:38.297Z,31.67
2023-02-05T01:44:10.261Z,31.07
2023-02-05T01:46:45.101Z,33.03
2023-02-05T01:49:23.564Z,31.75
2023-02-05T01:51:54.513Z,34.57
2023-02-05T01:54:27.287Z,34.03
2023-02-05T01:57:06.156Z,33.27
2023-02-05T01:59:39.201Z,33.40
2023-02-05T02:02:10.415Z,32.03
2023-02-05T02:04:52.093Z,33.53
2023-02-05T02:07:24.800Z,32.03
2023-02-05T02:09:56.016Z,33.40
2023-02-05T02:12:28.778Z,32.17
2023-02-05T02:15:04.810Z,31.97
2023-02-05T02:17:38.951Z,32.90
2023-02-05T02:20:11.392Z,33.23
2023-02-05T02:23:00.464Z,33.57
2023-02-05T02:25:56.674Z,33.13
2023-02-05T02:28:34.699Z,32.37
2023-02-05T02:31:13.556Z,31.60
2023-02-05T02:33:53.177Z,31.90
2023-02-05T02:36:31.771Z,31.17
2023-02-05T02:39:21.077Z,31.20
2023-02-05T02:41:56.614Z,30.07
2023-02-05T02:44:31.087Z,31.33
2023-02-05T02:47:03.811Z,30.23
2023-02-05T02:49:42.432Z,29.43
2023-02-05T02:52:17.323Z,29.37
2023-02-05T02:54:49.888Z,29.03
2023-02-05T02:57:22.189Z,28.53
2023-02-05T02:59:55.188Z,27.53
2023-02-05T03:02:26.960Z,27.98
2023-02-05T03:04:59.817Z,26.40
2023-02-05T03:07:36.012Z,26.47
2023-02-05T03:10:12.887Z,26.20
2023-02-05T03:12:42.774Z,24.23
2023-02-05T03:15:12.779Z,25.48
2023-02-05T03:17:43.674Z,23.80
2023-02-05T03:20:25.815Z,25.30
2023-02-05T03:22:56.878Z,24.32
2023-02-05T03:25:29.344Z,25.15
2023-02-05T03:28:00.321Z,22.98
2023-02-05T03:30:40.893Z,24.13
2023-02-05T03:33:48.315Z,24.05
2023-02-05T03:36:32.174Z,24.77
2023-02-05T03:39:06.242Z,25.30
2023-02-05T03:41:57.631Z,24.97
2023-02-05T03:44:57.254Z,24.32
2023-02-05T03:47:54.629Z,24.63
2023-02-05T03:50:43.024Z,25.35
2023-02-05T03:53:35.502Z,25.52
2023-02-05T03:56:16.803Z,24.10
2023-02-05T03:58:50.250Z,25.52
2023-02-05T04:01:21.941Z,25.37
2023-02-05T04:03:53.379Z,24.27
2023-02-05T04:06:23.169Z,24.03
2023-02-05T04:08:53.496Z,23.77
2023-02-05T04:11:24.652Z,24.10
2023-02-05T04:13:54.985Z,25.90
2023-02-05T04:16:24.946Z,25.80
2023-02-05T04:18:55.821Z,26.07
2023-02-05T04:21:26.721Z,25.60
2023-02-05T04:23:57.016Z,23.67
2023-02-05T04:26:27.268Z,25.37
2023-02-05T04:28:58.815Z,24.00
2023-02-05T04:31:29.195Z,23.70
2023-02-05T04:33:59.658Z,23.40
2023-02-05T04:36:29.495Z,23.50
2023-02-05T04:38:59.556Z,23.33
2023-02-05T04:41:29.385Z,21.90
2023-02-05T04:43:59.497Z,20.82
2023-02-05T04:46:29.027Z,20.10
2023-02-05T04:49:02.185Z,20.97
2023-02-05T04:51:32.018Z,19.60
2023-02-05T04:54:02.333Z,19.52
2023-02-05T04:56:31.913Z,18.33
2023-02-05T04:59:01.968Z,17.80
2023-02-05T05:01:31.878Z,17.47
2023-02-05T05:04:01.699Z,16.80
2023-02-05T05:06:31.794Z,16.07
2023-02-05T05:09:01.337Z,16.60
2023-02-05T05:11:31.335Z,15.53
2023-02-05T05:14:01.110Z,15.60
2023-02-05T05:16:31.206Z,15.20
2023-02-05T05:19:01.416Z,14.63
2023-02-05T05:21:31.243Z,13.27
2023-02-05T05:24:01.327Z,12.88
2023-02-05T05:26:30.909Z,13.50
2023-02-05T05:29:00.929Z,12.23
2023-02-05T05:31:30.814Z,12.43
2023-02-05T05:34:00.643Z,12.37
2023-02-05T05:36:30.424Z,12.57
2023-02-05T05:39:01.671Z,12.70
2023-02-05T05:41:49.224Z,12.60
2023-02-05T05:44:19.100Z,13.37
2023-02-05T05:46:48.845Z,12.70
2023-02-05T05:49:18.630Z,12.53
2023-02-05T05:51:48.440Z,12.10
2023-02-05T05:54:18.570Z,12.40
2023-02-05T05:56:49.585Z,12.73
2023-02-05T05:59:19.511Z,12.53
2023-02-05T06:01:49.268Z,12.37
2023-02-05T06:04:19.073Z,12.95
2023-02-05T06:06:48.640Z,13.93
2023-02-05T06:09:20.423Z,12.70
2023-02-05T06:11:50.521Z,13.83
2023-02-05T06:14:20.341Z,13.40
2023-02-05T06:16:52.244Z,12.17
2023-02-05T06:19:22.863Z,10.85
2023-02-05T06:21:52.755Z,9.50
2023-02-05T06:24:22.302Z,9.17
2023-02-05T06:26:52.146Z,8.03
2023-02-05T06:29:22.113Z,8.47
2023-02-05T06:31:52.145Z,7.67
2023-02-05T06:34:22.569Z,4.45
2023-02-05T06:36:52.170Z,2.90
2023-02-05T06:39:25.060Z,2.02
2023-02-05T06:41:54.327Z,1.27
2023-02-05T06:44:24.349Z,1.07
2023-02-05T06:46:54.181Z,0.93
2023-02-05T06:49:24.296Z,1.27
2023-02-05T06:51:54.466Z,1.40
2023-02-05T06:54:25.479Z,0.85
2023-02-05T06:56:55.746Z,1.40
2023-02-05T06:59:25.969Z,1.20
2023-02-05T07:01:55.849Z,1.50
2023-02-05T07:04:26.916Z,1.47
2023-02-05T07:06:58.066Z,1.40
2023-02-05T07:09:28.187Z,1.07
2023-02-05T07:11:57.951Z,1.27
2023-02-05T07:14:28.194Z,1.07
2023-02-05T07:16:58.012Z,1.50
2023-02-05T07:19:28.279Z,1.10
2023-02-05T07:21:58.079Z,1.00
2023-02-05T07:24:27.673Z,1.10
2023-02-05T07:26:57.495Z,1.20
2023-02-05T07:29:28.425Z,1.35
2023-02-05T07:31:58.369Z,1.20
2023-02-05T07:34:28.313Z,0.85
2023-02-05T07:36:58.092Z,1.03
2023-02-05T07:39:31.207Z,1.60
2023-02-05T07:42:01.835Z,1.70
2023-02-05T07:44:33.374Z,1.27
2023-02-05T07:47:03.339Z,1.43
2023-02-05T07:49:33.409Z,0.95
2023-02-05T07:52:03.465Z,1.55
2023-02-05T07:54:32.936Z,1.20
2023-02-05T07:57:04.910Z,1.07
2023-02-05T07:59:35.111Z,1.00
2023-02-05T08:02:04.940Z,1.10
2023-02-05T08:04:34.671Z,1.47
2023-02-05T08:07:04.635Z,1.57
2023-02-05T08:09:34.417Z,1.40
2023-02-05T08:12:04.288Z,1.90
2023-02-05T08:14:34.245Z,2.12
2023-02-05T08:17:06.398Z,1.27
2023-02-05T08:19:36.468Z,1.60
2023-02-05T08:22:09.352Z,1.40
2023-02-05T08:24:39.228Z,1.60
2023-02-05T08:27:09.030Z,1.80
2023-02-05T08:29:38.766Z,1.60
2023-02-05T08:32:08.543Z,1.63
2023-02-05T08:34:38.393Z,1.85
2023-02-05T08:37:08.541Z,2.20
2023-02-05T08:39:38.766Z,1.63
2023-02-05T08:42:08.694Z,1.83
2023-02-05T08:44:39.305Z,2.17
2023-02-05T08:47:09.093Z,2.53
2023-02-05T08:49:39.059Z,2.07
2023-02-05T08:52:08.878Z,1.53
2023-02-05T08:54:42.930Z,1.90
2023-02-05T08:57:13.117Z,3.95
2023-02-05T08:59:42.983Z,2.40
2023-02-05T09:02:16.692Z,2.10
2023-02-05T09:04:46.537Z,2.03
2023-02-05T09:07:19.399Z,2.58
2023-02-05T09:09:49.267Z,3.10
2023-02-05T09:12:19.569Z,3.16
2023-02-05T09:14:49.560Z,2.77
2023-02-05T09:17:19.410Z,3.00
2023-02-05T09:19:49.357Z,2.67
2023-02-05T09:22:20.855Z,2.92
2023-02-05T09:24:50.749Z,2.90
2023-02-05T09:27:20.525Z,2.60
2023-02-05T09:29:50.635Z,3.52
2023-02-05T09:32:20.365Z,2.83
2023-02-05T09:34:50.435Z,2.27
2023-02-05T09:37:19.916Z,2.95
2023-02-05T09:40:19.452Z,2.83
2023-02-05T09:42:42.024Z,3.35
2023-02-05T09:45:17.477Z,3.92
2023-02-05T09:47:59.299Z,3.30
2023-02-05T09:50:31.356Z,3.70
2023-02-05T09:53:06.869Z,3.23
2023-02-05T09:55:40.098Z,3.90
2023-02-05T09:58:20.105Z,3.75
2023-02-05T10:01:04.711Z,3.42
2023-02-05T10:04:03.108Z,4.00
2023-02-05T10:06:50.763Z,3.77
2023-02-05T10:09:38.399Z,3.87
2023-02-05T10:15:11.539Z,5.27
2023-02-05T10:17:47.311Z,3.35
2023-02-05T10:20:27.738Z,4.03
2023-02-05T10:23:01.701Z,4.23
2023-02-05T10:26:02.613Z,2.83
2023-02-05T10:28:35.549Z,3.80
2023-02-05T10:31:11.160Z,3.57
2023-02-05T10:33:47.007Z,3.17
2023-02-05T10:36:19.846Z,2.20
2023-02-05T10:38:51.976Z,3.10
2023-02-05T10:41:27.288Z,3.37
2023-02-05T10:44:18.832Z,3.13
2023-02-05T10:46:55.236Z,3.00
2023-02-05T10:49:47.294Z,3.17
2023-02-05T10:52:17.800Z,2.87
2023-02-05T10:54:48.280Z,3.13
2023-02-05T10:57:23.613Z,3.53
2023-02-05T10:59:58.837Z,3.57
2023-02-05T11:02:31.627Z,3.07
2023-02-05T11:05:03.918Z,3.40
2023-02-05T11:07:39.559Z,3.40
2023-02-05T11:10:26.381Z,3.60
2023-02-05T11:13:04.972Z,3.37
2023-02-05T11:15:35.342Z,3.00
2023-02-05T11:18:07.301Z,3.93
2023-02-05T11:20:39.520Z,3.77
2023-02-05T11:23:23.236Z,3.30
2023-02-05T11:25:58.676Z,3.00
2023-02-05T11:28:30.788Z,3.60
2023-02-05T11:31:03.382Z,4.30
2023-02-05T11:33:33.217Z,3.17
2023-02-05T11:36:09.249Z,4.07
2023-02-05T11:38:45.302Z,3.55
2023-02-05T11:41:18.375Z,3.50
2023-02-05T11:43:53.595Z,4.25
2023-02-05T11:46:25.449Z,3.90
2023-02-05T11:49:00.160Z,3.67
2023-02-05T11:51:38.420Z,3.65
2023-02-05T11:54:20.875Z,4.48
2023-02-05T11:57:16.712Z,4.45
2023-02-05T12:00:15.260Z,3.53
2023-02-05T12:02:45.772Z,3.83
2023-02-05T12:05:18.722Z,3.20
2023-02-05T12:08:13.667Z,3.63
2023-02-05T12:11:00.008Z,3.97
2023-02-05T12:13:49.012Z,3.58
2023-02-05T12:16:41.142Z,3.90
2023-02-05T12:19:16.825Z,3.10
2023-02-05T12:21:55.179Z,3.70
2023-02-05T12:24:48.748Z,3.10
2023-02-05T12:27:37.892Z,3.77
2023-02-05T12:30:27.183Z,3.28
2023-02-05T12:33:21.232Z,2.67
2023-02-05T12:35:59.481Z,2.80
2023-02-05T12:38:47.106Z,4.28
2023-02-05T12:41:40.848Z,3.20
2023-02-05T12:44:19.406Z,3.30
2023-02-05T12:47:15.845Z,2.90
2023-02-05T12:50:04.863Z,3.77
2023-02-05T12:52:59.460Z,3.30
2023-02-05T12:55:59.174Z,2.40
2023-02-05T12:58:38.386Z,3.17
2023-02-05T13:01:11.702Z,3.22
2023-02-05T13:03:50.292Z,2.80
2023-02-05T13:06:27.545Z,3.44
2023-02-05T13:09:18.750Z,3.07
2023-02-05T13:11:51.540Z,3.20
2023-02-05T13:14:30.078Z,3.42
2023-02-05T13:17:08.294Z,3.00
2023-02-05T13:19:44.110Z,3.23
2023-02-05T13:22:42.956Z,3.05
2023-02-05T13:25:51.018Z,2.55
2023-02-05T13:28:40.805Z,2.83
2023-02-05T13:31:16.105Z,3.05
2023-02-05T13:33:46.556Z,3.30
2023-02-05T13:36:34.083Z,3.22
2023-02-05T13:39:26.483Z,2.87
2023-02-05T13:42:00.632Z,2.73
2023-02-05T13:44:55.548Z,2.27
2023-02-05T13:47:33.880Z,1.87
2023-02-05T13:50:30.873Z,3.07
2023-02-05T13:53:18.585Z,3.42
2023-02-05T13:56:24.596Z,2.67
2023-02-05T13:58:57.642Z,3.00
2023-02-05T14:01:31.904Z,3.40
2023-02-05T14:04:07.647Z,2.73
2023-02-05T14:06:43.159Z,3.00
2023-02-05T14:09:24.743Z,2.97
2023-02-05T14:12:03.835Z,2.50
2023-02-05T14:14:38.208Z,3.43
2023-02-05T14:17:35.094Z,2.27
2023-02-05T14:23:04.850Z,2.42
2023-02-05T14:25:48.085Z,2.20
2023-02-05T14:28:32.553Z,2.70
2023-02-05T14:31:05.254Z,3.40
2023-02-05T14:33:38.613Z,3.70
2023-02-05T14:36:24.260Z,3.37
2023-02-05T14:39:08.698Z,2.67
2023-02-05T14:41:43.134Z,2.80
2023-02-05T14:44:20.031Z,3.30
2023-02-05T14:47:07.425Z,2.97
2023-02-05T14:49:46.821Z,2.33
2023-02-05T14:52:42.264Z,2.35
2023-02-05T14:55:17.799Z,1.98
2023-02-05T14:57:53.264Z,2.47
2023-02-05T15:00:41.674Z,2.40
2023-02-05T15:03:22.855Z,2.33
2023-02-05T15:06:01.132Z,2.17
2023-02-05T15:08:42.271Z,2.43
2023-02-05T15:11:47.650Z,2.27
2023-02-05T15:14:24.368Z,2.25
2023-02-05T15:17:10.456Z,3.00
2023-02-05T15:19:46.002Z,2.67
2023-02-05T15:22:37.857Z,2.88
2023-02-05T15:25:32.996Z,3.30
2023-02-05T15:31:25.641Z,2.98
2023-02-05T15:34:01.103Z,3.17
2023-02-05T15:36:42.705Z,2.30
2023-02-05T15:39:19.851Z,2.67
2023-02-05T15:41:50.358Z,3.17
2023-02-05T15:44:25.813Z,2.80
2023-02-05T15:46:56.897Z,3.47
2023-02-05T15:49:32.625Z,3.30
2023-02-05T15:52:02.539Z,3.67
2023-02-05T15:54:35.441Z,3.45
2023-02-05T15:57:06.386Z,3.37
2023-02-05T15:59:36.607Z,3.08
2023-02-05T16:02:11.218Z,3.50
2023-02-05T16:04:41.076Z,3.83
2023-02-05T16:07:23.274Z,2.67
2023-02-05T16:09:58.866Z,2.73
2023-02-05T16:12:30.452Z,2.83
2023-02-05T16:15:02.630Z,2.98
2023-02-05T16:17:44.728Z,2.80
2023-02-05T16:20:23.786Z,3.30
2023-02-05T16:23:02.126Z,3.10
2023-02-05T16:25:43.607Z,3.95
2023-02-05T16:28:37.205Z,3.52
2023-02-05T16:31:08.455Z,3.17
2023-02-05T16:33:44.109Z,3.13
2023-02-05T16:36:26.054Z,4.08
2023-02-05T16:39:01.829Z,3.70
2023-02-05T16:41:37.533Z,3.98
2023-02-05T16:44:10.444Z,3.22
2023-02-05T16:46:40.677Z,3.27
2023-02-05T16:49:28.345Z,3.20
2023-02-05T16:51:58.077Z,3.53
2023-02-05T16:54:31.035Z,3.25
2023-02-05T16:57:03.847Z,3.40
2023-02-05T16:59:36.709Z,4.27
2023-02-05T17:02:09.676Z,3.47
2023-02-05T17:04:39.992Z,3.37
2023-02-05T17:07:18.370Z,4.20
2023-02-05T17:09:48.549Z,4.30
2023-02-05T17:12:25.215Z,4.17
2023-02-05T17:15:01.997Z,3.93
2023-02-05T17:17:33.197Z,3.80
2023-02-05T17:20:05.597Z,3.73
2023-02-05T17:22:35.868Z,3.85
2023-02-05T17:25:07.870Z,4.85
2023-02-05T17:27:41.069Z,5.23
2023-02-05T17:30:13.747Z,4.77
2023-02-05T17:32:44.470Z,4.03
2023-02-05T17:35:15.917Z,3.80
2023-02-05T17:37:45.734Z,3.93
2023-02-05T17:40:17.225Z,4.97
2023-02-05T17:42:48.040Z,4.27
2023-02-05T17:45:26.326Z,3.40
2023-02-05T17:47:56.369Z,4.30
2023-02-05T17:50:26.083Z,4.57
2023-02-05T17:52:55.825Z,5.60
2023-02-05T17:55:25.813Z,4.17
2023-02-05T17:57:56.097Z,5.17
2023-02-05T18:00:30.632Z,4.67
2023-02-05T18:03:00.737Z,5.22
2023-02-05T18:05:30.864Z,4.58
2023-02-05T18:08:01.172Z,4.30
2023-02-05T18:10:32.724Z,5.00
2023-02-05T18:13:03.033Z,5.67
2023-02-05T18:15:33.677Z,5.20
2023-02-05T18:18:03.688Z,4.87
2023-02-05T18:20:34.217Z,5.17
2023-02-05T18:23:04.194Z,4.67
2023-02-05T18:25:34.078Z,5.27
2023-02-05T18:28:05.098Z,4.70
2023-02-05T18:30:35.463Z,4.73
2023-02-05T18:33:07.121Z,5.03
2023-02-05T18:35:38.818Z,4.60
2023-02-05T18:38:10.008Z,4.80
2023-02-05T18:40:42.105Z,4.73
2023-02-05T18:43:13.196Z,5.50
2023-02-05T18:45:43.159Z,5.03
2023-02-05T18:48:13.083Z,5.92
2023-02-05T18:50:42.891Z,6.30
2023-02-05T18:53:12.641Z,6.33
2023-02-05T18:55:42.549Z,4.63
2023-02-05T18:58:12.147Z,3.60
2023-02-05T19:00:42.821Z,4.55
2023-02-05T19:03:12.702Z,4.33
2023-02-05T19:05:42.696Z,5.03
2023-02-05T19:08:12.310Z,4.85
2023-02-05T19:10:42.160Z,5.57
2023-02-05T19:13:12.023Z,5.57
2023-02-05T19:15:41.928Z,5.13
2023-02-05T19:18:11.616Z,5.40
2023-02-05T19:20:41.435Z,5.43
2023-02-05T19:23:11.325Z,6.07
2023-02-05T19:25:41.151Z,6.53
2023-02-05T19:28:11.080Z,5.67
2023-02-05T19:30:41.086Z,5.83
2023-02-05T19:33:10.900Z,4.57
2023-02-05T19:35:41.256Z,4.60
2023-02-05T19:38:11.598Z,4.70
2023-02-05T19:40:41.402Z,4.63
2023-02-05T19:43:11.243Z,4.43
2023-02-05T19:45:41.330Z,5.15
2023-02-05T19:48:12.588Z,5.06
2023-02-05T19:50:43.499Z,5.83
2023-02-05T19:53:13.342Z,5.67
2023-02-05T19:55:43.134Z,4.77
2023-02-05T19:58:12.917Z,5.05
2023-02-05T20:00:42.686Z,5.23
2023-02-05T20:03:12.511Z,4.20
2023-02-05T20:05:43.923Z,4.17
2023-02-05T20:08:13.678Z,6.45
2023-02-05T20:10:43.436Z,5.27
2023-02-05T20:13:13.887Z,4.53
2023-02-05T20:15:43.677Z,4.50
2023-02-05T20:18:13.178Z,4.77
2023-02-05T20:20:43.314Z,4.78
2023-02-05T20:23:13.166Z,5.30
2023-02-05T20:25:42.966Z,4.93
2023-02-05T20:28:12.916Z,4.97
2023-02-05T20:31:00.739Z,6.70
2023-02-05T20:33:30.656Z,5.80
2023-02-05T20:36:05.854Z,6.00
2023-02-05T20:38:36.312Z,5.10
2023-02-05T20:41:17.090Z,6.20
2023-02-05T20:43:46.976Z,6.77
2023-02-05T20:46:17.698Z,5.75
2023-02-05T20:48:48.467Z,5.35
2023-02-05T20:51:22.180Z,4.40
2023-02-05T20:53:52.583Z,4.80
2023-02-05T20:56:22.834Z,5.37
2023-02-05T20:58:53.237Z,5.60
2023-02-05T21:01:28.722Z,4.43
2023-02-05T21:04:00.849Z,5.85
2023-02-05T21:06:36.338Z,5.43
2023-02-05T21:09:07.692Z,5.53
2023-02-05T21:11:38.635Z,5.33
2023-02-05T21:14:10.305Z,5.67
2023-02-05T21:16:40.783Z,5.87
2023-02-05T21:19:12.234Z,5.90
2023-02-05T21:21:42.362Z,7.53
2023-02-05T21:24:17.259Z,6.28
2023-02-05T21:26:49.283Z,5.33
2023-02-05T21:29:21.481Z,5.43
2023-02-05T21:31:54.859Z,4.97
2023-02-05T21:34:27.685Z,5.90
2023-02-05T21:36:57.773Z,5.25
2023-02-05T21:39:27.619Z,4.93
2023-02-05T21:41:57.709Z,4.47
2023-02-05T21:44:27.465Z,5.55
2023-02-05T21:46:57.524Z,4.60
2023-02-05T21:49:27.673Z,5.87
2023-02-05T21:51:57.390Z,5.40
2023-02-05T21:54:26.865Z,5.33
2023-02-05T21:56:56.659Z,5.33
2023-02-05T21:59:26.153Z,5.70
2023-02-05T22:01:55.941Z,4.83
2023-02-05T22:04:25.540Z,5.73
2023-02-05T22:06:55.415Z,5.80
2023-02-05T22:09:25.186Z,5.60
2023-02-05T22:11:56.411Z,5.40
2023-02-05T22:14:25.956Z,5.13
2023-02-05T22:16:56.064Z,4.97
2023-02-05T22:19:26.464Z,5.43
2023-02-05T22:21:56.289Z,6.27
2023-02-05T22:24:25.827Z,4.90
2023-02-05T22:26:55.686Z,4.63
2023-02-05T22:29:25.284Z,5.00
2023-02-05T22:31:55.392Z,4.70
2023-02-05T22:34:25.329Z,5.45
2023-02-05T22:36:55.100Z,5.10
2023-02-05T22:39:24.856Z,4.97
2023-02-05T22:41:54.992Z,4.83
2023-02-05T22:44:24.587Z,5.47
2023-02-05T22:46:54.620Z,4.90
2023-02-05T22:49:24.118Z,5.85
2023-02-05T22:51:54.074Z,7.23
2023-02-05T22:54:24.060Z,5.95
2023-02-05T22:56:54.254Z,5.70
2023-02-05T22:59:24.147Z,5.30
2023-02-05T23:01:53.894Z,5.37
2023-02-05T23:04:23.388Z,5.00
2023-02-05T23:06:53.142Z,5.80
2023-02-05T23:09:23.073Z,5.37
2023-02-05T23:11:55.441Z,6.03
2023-02-05T23:14:24.946Z,5.70
2023-02-05T23:16:56.565Z,4.53
2023-02-05T23:19:27.103Z,5.53
2023-02-05T23:21:56.863Z,4.90
2023-02-05T23:24:26.641Z,4.62
2023-02-05T23:26:56.722Z,6.33
2023-02-05T23:29:27.096Z,5.33
2023-02-05T23:31:56.587Z,4.00
2023-02-05T23:34:26.436Z,4.37
2023-02-05T23:36:56.625Z,4.62
2023-02-05T23:39:26.192Z,4.42
2023-02-05T23:41:55.946Z,5.00
2023-02-05T23:44:25.855Z,5.00
2023-02-05T23:46:55.674Z,5.10
2023-02-05T23:49:25.906Z,4.70
2023-02-05T23:51:56.244Z,4.75
2023-02-05T23:54:25.878Z,5.97
2023-02-05T23:56:56.677Z,4.63
2023-02-05T23:59:26.423Z,4.77
